createdAt,value
2023-05-20T00:02:42.366Z,28.15
2023-05-20T00:05:32.396Z,25.95
2023-05-20T00:08:21.954Z,22.60
2023-05-20T00:11:11.610Z,23.42
2023-05-20T00:14:00.960Z,21.55
2023-05-20T00:16:52.231Z,19.42
2023-05-20T00:19:44.505Z,23.23
2023-05-20T00:22:38.641Z,23.83
2023-05-20T00:25:30.602Z,21.67
2023-05-20T00:28:21.326Z,19.50
2023-05-20T00:31:11.350Z,20.83
2023-05-20T00:34:02.082Z,23.13
2023-05-20T00:36:51.863Z,17.50
2023-05-20T00:39:41.313Z,23.65
2023-05-20T00:42:31.012Z,22.25
2023-05-20T00:45:20.695Z,21.33
2023-05-20T00:48:11.241Z,24.85
2023-05-20T00:51:03.143Z,20.45
2023-05-20T00:53:52.854Z,21.67
2023-05-20T00:56:46.631Z,21.63
2023-05-20T00:59:36.956Z,23.02
2023-05-20T01:02:26.723Z,24.40
2023-05-20T01:05:16.246Z,24.75
2023-05-20T01:08:08.062Z,22.40
2023-05-20T01:11:05.206Z,24.75
2023-05-20T01:14:00.322Z,22.85
2023-05-20T01:16:53.971Z,27.23
2023-05-20T01:19:44.615Z,25.35
2023-05-20T01:22:37.842Z,27.33
2023-05-20T01:25:27.265Z,26.52
2023-05-20T01:28:18.120Z,24.80
2023-05-20T01:31:17.911Z,27.35
2023-05-20T01:34:07.576Z,23.75
2023-05-20T01:36:57.765Z,26.98
2023-05-20T01:39:50.798Z,30.58
2023-05-20T01:42:42.915Z,21.52
2023-05-20T01:45:33.353Z,27.88
2023-05-20T01:48:22.871Z,27.40
2023-05-20T01:51:12.333Z,26.65
2023-05-20T01:54:02.027Z,24.25
2023-05-20T01:56:53.017Z,25.05
2023-05-20T01:59:45.758Z,24.95
2023-05-20T02:02:35.246Z,24.77
2023-05-20T02:05:24.686Z,26.30
2023-05-20T02:08:14.015Z,25.83
2023-05-20T02:11:03.949Z,25.02
2023-05-20T02:13:54.649Z,32.92
2023-05-20T02:16:44.663Z,26.00
2023-05-20T02:19:35.636Z,29.38
2023-05-20T02:22:24.998Z,33.83
2023-05-20T02:25:14.600Z,27.48
2023-05-20T02:28:10.798Z,25.55
2023-05-20T02:31:01.584Z,34.20
2023-05-20T02:33:53.934Z,35.75
2023-05-20T02:36:43.317Z,26.55
2023-05-20T02:39:33.178Z,30.92
2023-05-20T02:42:22.504Z,30.70
2023-05-20T02:45:12.662Z,29.08
2023-05-20T02:48:03.413Z,30.13
2023-05-20T02:50:54.426Z,28.23
2023-05-20T02:53:43.682Z,26.70
2023-05-20T02:56:34.447Z,35.50
2023-05-20T02:59:25.355Z,37.88
2023-05-20T03:02:14.841Z,32.30
2023-05-20T03:05:06.358Z,33.92
2023-05-20T03:07:55.707Z,30.25
2023-05-20T03:10:45.001Z,32.25
2023-05-20T03:13:35.113Z,33.85
2023-05-20T03:16:25.340Z,34.90
2023-05-20T03:19:14.844Z,27.80
2023-05-20T03:22:06.159Z,41.08
2023-05-20T03:24:55.903Z,40.92
2023-05-20T03:27:46.718Z,36.88
2023-05-20T03:30:36.076Z,31.40
2023-05-20T03:33:26.420Z,33.50
2023-05-20T03:36:17.013Z,32.67
2023-05-20T03:39:07.822Z,37.35
2023-05-20T03:41:57.440Z,31.08
2023-05-20T03:44:46.854Z,39.72
2023-05-20T03:47:38.599Z,36.78
2023-05-20T03:50:28.653Z,40.83
2023-05-20T03:53:20.352Z,33.70
2023-05-20T03:56:11.184Z,35.90
2023-05-20T03:59:02.180Z,34.10
2023-05-20T04:01:52.013Z,42.03
2023-05-20T04:04:43.197Z,34.67
2023-05-20T04:07:32.993Z,33.20
2023-05-20T04:10:23.190Z,38.65
2023-05-20T04:13:15.702Z,39.25
2023-05-20T04:16:05.530Z,41.83
2023-05-20T04:18:54.946Z,35.30
2023-05-20T04:21:45.295Z,44.75
2023-05-20T04:24:35.010Z,43.50
2023-05-20T04:27:24.540Z,37.67
2023-05-20T04:30:16.937Z,37.80
2023-05-20T04:33:06.851Z,41.53
2023-05-20T04:35:58.790Z,37.00
2023-05-20T04:38:48.380Z,46.65
2023-05-20T04:41:37.895Z,46.28
2023-05-20T04:44:28.439Z,34.25
2023-05-20T04:47:19.259Z,45.35
2023-05-20T04:50:11.912Z,47.85
2023-05-20T04:53:03.275Z,48.95
2023-05-20T04:55:56.984Z,41.85
2023-05-20T04:58:46.732Z,41.75
2023-05-20T05:01:36.183Z,46.33
2023-05-20T05:04:26.968Z,38.03
2023-05-20T05:07:16.347Z,50.65
2023-05-20T05:10:06.787Z,42.50
2023-05-20T05:12:56.153Z,43.17
2023-05-20T05:15:45.645Z,43.92
2023-05-20T05:18:34.996Z,40.00
2023-05-20T05:21:25.858Z,41.80
2023-05-20T05:24:15.650Z,46.13
2023-05-20T05:27:05.853Z,42.20
2023-05-20T05:29:55.532Z,49.55
2023-05-20T05:32:45.164Z,51.95
2023-05-20T05:35:34.950Z,40.90
2023-05-20T05:38:26.092Z,55.40
2023-05-20T05:41:15.666Z,42.65
2023-05-20T05:44:06.082Z,41.85
2023-05-20T05:46:55.678Z,51.65
2023-05-20T05:49:44.981Z,43.90
2023-05-20T05:52:34.530Z,47.63
2023-05-20T05:55:26.852Z,47.65
2023-05-20T05:58:17.766Z,41.72
2023-05-20T06:01:07.906Z,45.58
2023-05-20T06:03:57.502Z,35.05
2023-05-20T06:06:46.986Z,43.63
2023-05-20T06:09:38.979Z,43.67
2023-05-20T06:12:29.829Z,39.00
2023-05-20T06:15:22.161Z,40.03
2023-05-20T06:18:14.204Z,42.80
2023-05-20T06:21:04.743Z,30.83
2023-05-20T06:23:57.118Z,36.95
2023-05-20T06:26:46.687Z,30.58
2023-05-20T06:29:37.499Z,37.42
2023-05-20T06:32:27.064Z,36.15
2023-05-20T06:35:18.593Z,29.38
2023-05-20T06:38:08.341Z,35.67
2023-05-20T06:40:57.862Z,34.78
2023-05-20T06:43:47.964Z,23.27
2023-05-20T06:46:57.436Z,39.60
2023-05-20T06:49:47.775Z,33.55
2023-05-20T06:52:38.638Z,27.85
2023-05-20T06:55:28.038Z,29.58
2023-05-20T06:58:17.558Z,21.50
2023-05-20T07:01:07.180Z,29.77
2023-05-20T07:03:58.858Z,24.00
2023-05-20T07:06:48.361Z,29.75
2023-05-20T07:09:37.818Z,27.40
2023-05-20T07:12:29.029Z,26.45
2023-05-20T07:15:18.677Z,21.10
2023-05-20T07:18:08.763Z,25.65
2023-05-20T07:20:59.606Z,26.05
2023-05-20T07:24:12.330Z,24.67
2023-05-20T07:27:01.647Z,25.73
2023-05-20T07:29:51.174Z,22.42
2023-05-20T07:32:41.137Z,24.95
2023-05-20T07:35:31.610Z,34.10
2023-05-20T07:38:25.256Z,26.17
2023-05-20T07:41:20.037Z,25.35
2023-05-20T07:44:11.388Z,25.60
2023-05-20T07:47:04.755Z,28.42
2023-05-20T07:49:55.602Z,22.13
2023-05-20T07:55:46.917Z,23.65
2023-05-20T07:58:37.020Z,24.77
2023-05-20T08:01:27.009Z,21.38
2023-05-20T08:04:17.384Z,21.73
2023-05-20T08:07:08.437Z,24.65
2023-05-20T08:10:11.491Z,21.92
2023-05-20T08:13:02.316Z,27.67
2023-05-20T08:15:54.922Z,26.40
2023-05-20T08:18:44.456Z,19.80
2023-05-20T08:21:33.699Z,21.17
2023-05-20T08:24:23.002Z,16.55
2023-05-20T08:27:12.672Z,26.75
2023-05-20T08:30:03.631Z,21.50
2023-05-20T08:32:54.084Z,24.98
2023-05-20T08:35:43.472Z,19.38
2023-05-20T08:38:32.671Z,23.25
2023-05-20T08:41:22.826Z,22.98
2023-05-20T08:44:12.890Z,24.13
2023-05-20T08:47:06.421Z,22.38
2023-05-20T08:49:56.208Z,23.83
2023-05-20T08:52:47.381Z,24.30
2023-05-20T08:55:44.703Z,20.50
2023-05-20T08:58:34.175Z,23.23
2023-05-20T09:01:26.392Z,24.80
2023-05-20T09:04:17.772Z,26.58
2023-05-20T09:07:07.500Z,21.73
2023-05-20T09:09:56.834Z,20.70
2023-05-20T09:12:46.272Z,19.67
2023-05-20T09:15:37.175Z,23.75
2023-05-20T09:18:26.848Z,24.75
2023-05-20T09:21:17.509Z,24.25
2023-05-20T09:24:07.276Z,25.15
2023-05-20T09:26:56.630Z,20.02
2023-05-20T09:29:46.075Z,23.05
2023-05-20T09:32:35.500Z,28.92
2023-05-20T09:35:25.133Z,25.20
2023-05-20T09:38:16.710Z,19.67
2023-05-20T09:41:09.901Z,22.83
2023-05-20T09:43:59.991Z,21.50
2023-05-20T09:46:50.251Z,32.30
2023-05-20T09:49:40.871Z,23.10
2023-05-20T09:52:31.286Z,25.67
2023-05-20T09:55:24.484Z,28.45
2023-05-20T09:58:16.356Z,21.80
2023-05-20T10:01:07.086Z,25.83
2023-05-20T10:03:57.669Z,22.10
2023-05-20T10:07:06.647Z,27.63
2023-05-20T10:10:13.091Z,26.92
2023-05-20T10:13:17.153Z,30.23
2023-05-20T10:16:30.841Z,37.08
2023-05-20T10:19:31.370Z,27.35
2023-05-20T10:22:29.927Z,24.20
2023-05-20T10:25:27.807Z,23.73
2023-05-20T10:28:26.499Z,25.45
2023-05-20T10:31:21.945Z,27.80
2023-05-20T10:34:18.152Z,24.98
2023-05-20T10:37:07.670Z,33.30
2023-05-20T10:40:09.855Z,30.92
2023-05-20T10:43:10.610Z,26.17
2023-05-20T10:46:03.244Z,34.47
2023-05-20T10:48:54.644Z,25.27
2023-05-20T10:51:46.398Z,26.75
2023-05-20T10:54:38.496Z,33.33
2023-05-20T10:57:29.935Z,26.73
2023-05-20T11:00:20.875Z,31.50
2023-05-20T11:03:13.275Z,32.78
2023-05-20T11:06:02.747Z,29.27
2023-05-20T11:08:52.066Z,26.00
2023-05-20T11:11:42.409Z,25.80
2023-05-20T11:14:32.232Z,53.53
2023-05-20T11:17:22.072Z,30.17
2023-05-20T11:20:16.000Z,23.20
2023-05-20T11:23:07.471Z,25.80
2023-05-20T11:25:59.724Z,24.27
2023-05-20T11:28:49.068Z,26.83
2023-05-20T11:31:40.318Z,29.45
2023-05-20T11:34:36.596Z,30.50
2023-05-20T11:37:27.413Z,32.95
2023-05-20T11:40:16.808Z,34.30
2023-05-20T11:43:06.052Z,32.42
2023-05-20T11:45:59.441Z,35.42
2023-05-20T11:48:55.036Z,31.58
2023-05-20T11:51:46.039Z,32.60
2023-05-20T11:54:38.904Z,38.75
2023-05-20T11:57:28.221Z,28.98
2023-05-20T12:00:18.070Z,29.90
2023-05-20T12:03:07.570Z,30.52
2023-05-20T12:05:58.335Z,29.30
2023-05-20T12:08:47.896Z,30.52
2023-05-20T12:11:41.713Z,26.08
2023-05-20T12:14:31.575Z,29.42
2023-05-20T12:17:20.840Z,29.73
2023-05-20T12:20:11.796Z,29.55
2023-05-20T12:23:01.489Z,28.33
2023-05-20T12:25:51.119Z,31.75
2023-05-20T12:28:41.814Z,25.13
2023-05-20T12:31:33.078Z,26.98
2023-05-20T12:37:13.687Z,21.00
2023-05-20T12:40:05.680Z,29.42
2023-05-20T12:42:55.045Z,24.13
2023-05-20T12:45:45.885Z,25.88
2023-05-20T12:48:35.246Z,22.10
2023-05-20T12:51:24.493Z,25.52
2023-05-20T12:54:14.009Z,28.88
2023-05-20T12:57:03.344Z,33.17
2023-05-20T12:59:52.708Z,27.73
2023-05-20T13:02:44.350Z,31.98
2023-05-20T13:05:33.965Z,30.35
2023-05-20T13:08:23.233Z,32.00
2023-05-20T13:11:12.744Z,30.30
2023-05-20T13:14:02.249Z,31.58
2023-05-20T13:16:55.058Z,36.85
2023-05-20T13:22:35.250Z,30.65
2023-05-20T13:25:24.642Z,29.67
2023-05-20T13:28:16.900Z,38.90
2023-05-20T13:31:07.935Z,34.22
2023-05-20T13:34:03.044Z,31.40
2023-05-20T13:36:53.776Z,33.38
2023-05-20T13:39:43.351Z,28.00
2023-05-20T13:42:32.778Z,33.63
2023-05-20T13:45:22.555Z,34.28
2023-05-20T13:48:12.274Z,35.90
2023-05-20T13:51:02.001Z,37.42
2023-05-20T13:53:52.750Z,30.90
2023-05-20T13:56:42.668Z,35.28
2023-05-20T13:59:32.048Z,29.17
2023-05-20T14:02:21.457Z,33.95
2023-05-20T14:05:11.240Z,30.98
2023-05-20T14:08:00.594Z,36.22
2023-05-20T14:10:54.905Z,29.33
2023-05-20T14:13:45.091Z,34.75
2023-05-20T14:16:34.518Z,35.17
2023-05-20T14:19:23.961Z,33.30
2023-05-20T14:22:15.452Z,32.97
2023-05-20T14:25:05.559Z,35.38
2023-05-20T14:27:56.592Z,34.00
2023-05-20T14:30:50.076Z,34.65
2023-05-20T14:33:39.878Z,31.05
2023-05-20T14:36:32.566Z,40.10
2023-05-20T14:39:24.461Z,30.65
2023-05-20T14:42:13.937Z,31.02
2023-05-20T14:45:05.201Z,27.58
2023-05-20T14:47:54.803Z,42.20
2023-05-20T14:50:47.690Z,32.80
2023-05-20T14:53:38.794Z,34.28
2023-05-20T14:56:28.207Z,35.20
2023-05-20T14:59:17.527Z,29.75
2023-05-20T15:02:08.840Z,32.67
2023-05-20T15:04:58.352Z,32.55
2023-05-20T15:08:00.705Z,25.60
2023-05-20T15:10:50.584Z,24.87
2023-05-20T15:13:40.620Z,32.03
2023-05-20T15:16:31.850Z,57.15
2023-05-20T15:19:23.041Z,32.40
2023-05-20T15:22:14.249Z,25.23
2023-05-20T15:25:09.257Z,24.92
2023-05-20T15:28:00.413Z,25.13
2023-05-20T15:30:56.589Z,25.48
2023-05-20T15:33:51.697Z,25.88
2023-05-20T15:36:42.648Z,24.98
2023-05-20T15:39:31.915Z,25.35
2023-05-20T15:42:27.052Z,27.85
2023-05-20T15:45:21.826Z,26.27
2023-05-20T15:48:11.683Z,25.92
2023-05-20T15:51:05.419Z,27.45
2023-05-20T15:54:01.871Z,26.17
2023-05-20T15:56:52.495Z,26.38
2023-05-20T15:59:41.830Z,26.20
2023-05-20T16:02:35.484Z,28.10
2023-05-20T16:05:25.897Z,23.60
2023-05-20T16:08:24.006Z,28.50
2023-05-20T16:11:17.762Z,27.33
2023-05-20T16:14:08.533Z,22.25
2023-05-20T16:17:02.643Z,21.73
2023-05-20T16:19:55.088Z,21.20
2023-05-20T16:22:47.101Z,24.52
2023-05-20T16:25:38.589Z,23.97
2023-05-20T16:28:29.239Z,20.60
2023-05-20T16:31:22.385Z,21.10
2023-05-20T16:34:11.801Z,23.77
2023-05-20T16:37:01.462Z,28.65
2023-05-20T16:39:50.922Z,20.42
2023-05-20T16:42:40.948Z,25.52
2023-05-20T16:45:31.829Z,19.95
2023-05-20T16:48:21.056Z,24.98
2023-05-20T16:51:10.391Z,42.78
2023-05-20T16:53:59.690Z,23.05
2023-05-20T16:56:49.030Z,23.90
2023-05-20T16:59:38.277Z,21.90
2023-05-20T17:02:29.101Z,27.38
2023-05-20T17:05:18.869Z,31.63
2023-05-20T17:08:08.212Z,32.58
2023-05-20T17:10:57.972Z,35.40
2023-05-20T17:13:47.386Z,32.38
2023-05-20T17:16:36.962Z,34.40
2023-05-20T17:19:27.929Z,33.67
2023-05-20T17:22:17.596Z,46.05
2023-05-20T17:25:08.034Z,38.80
2023-05-20T17:27:57.302Z,37.47
2023-05-20T17:30:46.649Z,43.55
2023-05-20T17:33:35.979Z,48.65
2023-05-20T17:36:26.899Z,39.28
2023-05-20T17:39:17.020Z,40.75
2023-05-20T17:42:07.031Z,43.90
2023-05-20T17:44:56.446Z,42.95
2023-05-20T17:47:45.852Z,52.53
2023-05-20T17:50:35.448Z,63.03
2023-05-20T17:53:26.396Z,68.03
2023-05-20T17:56:15.953Z,78.32
2023-05-20T17:59:05.782Z,69.00
2023-05-20T18:01:55.243Z,69.93
2023-05-20T18:04:44.672Z,66.40
2023-05-20T18:07:34.574Z,70.57
2023-05-20T18:10:25.403Z,69.55
2023-05-20T18:13:15.251Z,65.40
2023-05-20T18:16:04.816Z,72.55
2023-05-20T18:18:54.491Z,77.65
2023-05-20T18:21:44.484Z,91.50
2023-05-20T18:24:33.884Z,72.85
2023-05-20T18:27:24.978Z,68.75
2023-05-20T18:30:14.458Z,74.10
2023-05-20T18:33:03.881Z,69.47
2023-05-20T18:35:54.299Z,69.70
2023-05-20T18:38:45.122Z,68.88
2023-05-20T18:41:45.952Z,76.68
2023-05-20T18:44:37.515Z,71.80
2023-05-20T18:47:27.731Z,72.63
2023-05-20T18:50:17.234Z,77.03
2023-05-20T18:53:06.476Z,74.38
2023-05-20T18:55:56.235Z,81.50
2023-05-20T18:58:45.992Z,77.22
2023-05-20T19:01:36.857Z,77.40
2023-05-20T19:04:26.681Z,75.63
2023-05-20T19:07:16.056Z,78.25
2023-05-20T19:10:06.897Z,76.53
2023-05-20T19:12:56.933Z,83.43
2023-05-20T19:15:46.306Z,77.28
2023-05-20T19:18:36.975Z,80.65
2023-05-20T19:21:26.391Z,74.60
2023-05-20T19:24:17.714Z,74.55
2023-05-20T19:27:07.569Z,85.60
2023-05-20T19:29:56.881Z,74.43
2023-05-20T19:32:46.334Z,77.97
2023-05-20T19:35:37.283Z,78.93
2023-05-20T19:38:29.947Z,82.70
2023-05-20T19:41:19.612Z,80.15
2023-05-20T19:44:10.309Z,70.68
2023-05-20T19:46:59.748Z,70.45
2023-05-20T19:49:49.069Z,70.90
2023-05-20T19:52:39.824Z,74.70
2023-05-20T19:55:29.158Z,73.95
2023-05-20T19:58:18.508Z,69.43
2023-05-20T20:01:07.915Z,68.75
2023-05-20T20:03:57.515Z,66.88
2023-05-20T20:06:48.230Z,75.43
2023-05-20T20:09:39.232Z,77.45
2023-05-20T20:12:28.592Z,78.00
2023-05-20T20:15:20.603Z,73.82
2023-05-20T20:18:10.100Z,79.30
2023-05-20T20:21:00.677Z,70.82
2023-05-20T20:23:50.093Z,76.45
2023-05-20T20:26:40.786Z,74.32
2023-05-20T20:29:30.033Z,77.05
2023-05-20T20:32:19.508Z,81.78
2023-05-20T20:35:10.386Z,78.78
2023-05-20T20:38:00.240Z,82.45
2023-05-20T20:40:50.031Z,76.55
2023-05-20T20:43:42.749Z,82.32
2023-05-20T20:46:32.121Z,80.53
2023-05-20T20:49:22.573Z,90.82
2023-05-20T20:52:12.495Z,82.10
2023-05-20T20:55:01.995Z,77.82
2023-05-20T20:57:51.350Z,78.72
2023-05-20T21:00:44.466Z,83.05
2023-05-20T21:03:35.184Z,79.65
2023-05-20T21:06:24.456Z,83.22
2023-05-20T21:09:13.954Z,86.63
2023-05-20T21:12:06.703Z,84.68
2023-05-20T21:14:56.223Z,85.72
2023-05-20T21:17:46.947Z,91.43
2023-05-20T21:20:36.525Z,80.28
2023-05-20T21:23:25.969Z,85.97
2023-05-20T21:26:15.327Z,86.72
2023-05-20T21:29:04.843Z,86.13
2023-05-20T21:31:55.178Z,89.68
2023-05-20T21:34:45.935Z,85.10
2023-05-20T21:37:35.624Z,87.15
2023-05-20T21:40:25.130Z,88.13
2023-05-20T21:43:14.394Z,84.10
2023-05-20T21:46:03.824Z,85.50
2023-05-20T21:48:53.148Z,89.03
2023-05-20T21:51:44.042Z,88.30
2023-05-20T21:54:33.705Z,88.68
2023-05-20T21:57:23.017Z,95.30
2023-05-20T22:00:15.348Z,88.20
2023-05-20T22:03:04.923Z,87.65
2023-05-20T22:05:55.508Z,88.15
2023-05-20T22:08:46.351Z,83.50
2023-05-20T22:11:37.763Z,86.65
2023-05-20T22:14:27.529Z,85.43
2023-05-20T22:17:18.006Z,83.40
2023-05-20T22:20:10.643Z,84.30
2023-05-20T22:23:00.145Z,85.13
2023-05-20T22:25:51.130Z,82.57
2023-05-20T22:28:40.494Z,91.25
2023-05-20T22:31:29.964Z,88.75
2023-05-20T22:34:20.319Z,90.72
2023-05-20T22:37:10.314Z,87.72
2023-05-20T22:39:59.782Z,88.97
2023-05-20T22:42:53.974Z,91.95
2023-05-20T22:45:43.384Z,81.53
2023-05-20T22:48:32.771Z,83.57
2023-05-20T22:51:22.438Z,88.13
2023-05-20T22:54:13.822Z,89.95
2023-05-20T22:57:03.420Z,88.47
2023-05-20T22:59:58.655Z,82.65
2023-05-20T23:02:50.216Z,88.28
2023-05-20T23:05:39.552Z,85.10
2023-05-20T23:08:28.939Z,79.93
2023-05-20T23:11:18.252Z,81.10
2023-05-20T23:14:07.790Z,83.60
2023-05-20T23:16:58.635Z,88.75
2023-05-20T23:19:48.737Z,89.47
2023-05-20T23:22:38.105Z,84.63
2023-05-20T23:25:27.839Z,91.18
2023-05-20T23:28:20.215Z,89.20
2023-05-20T23:31:10.476Z,89.65
2023-05-20T23:34:03.827Z,95.63
2023-05-20T23:36:53.330Z,90.03
2023-05-20T23:39:42.945Z,83.85
2023-05-20T23:42:32.744Z,91.60
2023-05-20T23:45:22.133Z,89.78
2023-05-20T23:48:13.622Z,86.43
2023-05-20T23:51:04.646Z,87.68
2023-05-20T23:53:53.957Z,85.25
2023-05-20T23:56:44.419Z,90.00
2023-05-20T23:59:34.352Z,87.75
